261250Z 14003KT 080V190 CAVOK 09/02 Q0996 RWY 14 CONTAMINATION CEASED=

261130Z 2612/2621 31006KT CAVOK=

Aktuell METAR/TAF ESNU/UME

Källa: Luftfartsverket (aro.lfv.se)